sensor_id;sensor_type;location;lat;lon;timestamp;P1;durP1;ratioP1;P2;durP2;ratioP2
65684;SDS011;52405;50.844;-1.062;2022-09-09T00:01:28;7.43;;;1.40;;
65684;SDS011;52405;50.844;-1.062;2022-09-09T00:09:19;7.47;;;1.60;;
65684;SDS011;52405;50.844;-1.062;2022-09-09T00:11:54;10.20;;;1.73;;
65684;SDS011;52405;50.844;-1.062;2022-09-09T00:14:31;6.10;;;1.50;;
65684;SDS011;52405;50.844;-1.062;2022-09-09T00:17:12;6.63;;;1.48;;
65684;SDS011;52405;50.844;-1.062;2022-09-09T00:19:48;7.88;;;1.90;;
65684;SDS011;52405;50.844;-1.062;2022-09-09T00:22:25;7.32;;;1.50;;
65684;SDS011;52405;50.844;-1.062;2022-09-09T00:24:56;11.13;;;2.00;;
65684;SDS011;52405;50.844;-1.062;2022-09-09T00:27:43;7.18;;;1.40;;
65684;SDS011;52405;50.844;-1.062;2022-09-09T00:30:16;14.30;;;1.95;;
65684;SDS011;52405;50.844;-1.062;2022-09-09T00:32:55;6.95;;;2.00;;
65684;SDS011;52405;50.844;-1.062;2022-09-09T00:35:34;8.30;;;1.88;;
65684;SDS011;52405;50.844;-1.062;2022-09-09T00:38:15;10.60;;;1.75;;
65684;SDS011;52405;50.844;-1.062;2022-09-09T00:48:32;4.68;;;1.77;;
65684;SDS011;52405;50.844;-1.062;2022-09-09T00:51:23;6.32;;;2.58;;
65684;SDS011;52405;50.844;-1.062;2022-09-09T00:54:13;8.43;;;1.40;;
65684;SDS011;52405;50.844;-1.062;2022-09-09T00:57:36;10.68;;;2.80;;
65684;SDS011;52405;50.844;-1.062;2022-09-09T00:59:57;6.78;;;2.42;;
65684;SDS011;52405;50.844;-1.062;2022-09-09T01:02:46;4.32;;;1.40;;
65684;SDS011;52405;50.844;-1.062;2022-09-09T01:05:34;8.65;;;1.70;;
65684;SDS011;52405;50.844;-1.062;2022-09-09T01:08:57;5.15;;;1.58;;
65684;SDS011;52405;50.844;-1.062;2022-09-09T01:11:01;4.18;;;1.55;;
65684;SDS011;52405;50.844;-1.062;2022-09-09T01:13:31;6.82;;;1.80;;
65684;SDS011;52405;50.844;-1.062;2022-09-09T01:16:00;3.40;;;1.75;;
65684;SDS011;52405;50.844;-1.062;2022-09-09T01:18:50;7.88;;;1.30;;
65684;SDS011;52405;50.844;-1.062;2022-09-09T01:26:45;5.97;;;2.33;;
65684;SDS011;52405;50.844;-1.062;2022-09-09T01:29:13;7.03;;;1.90;;
65684;SDS011;52405;50.844;-1.062;2022-09-09T01:34:25;7.88;;;1.92;;
65684;SDS011;52405;50.844;-1.062;2022-09-09T01:39:37;8.30;;;2.85;;
65684;SDS011;52405;50.844;-1.062;2022-09-09T01:42:06;6.53;;;2.08;;
65684;SDS011;52405;50.844;-1.062;2022-09-09T01:44:34;5.57;;;1.70;;
65684;SDS011;52405;50.844;-1.062;2022-09-09T01:47:00;7.55;;;2.00;;
65684;SDS011;52405;50.844;-1.062;2022-09-09T01:49:26;7.97;;;2.53;;
65684;SDS011;52405;50.844;-1.062;2022-09-09T01:51:53;6.03;;;1.98;;
65684;SDS011;52405;50.844;-1.062;2022-09-09T01:54:20;7.53;;;1.95;;
65684;SDS011;52405;50.844;-1.062;2022-09-09T02:02:21;4.40;;;2.83;;
65684;SDS011;52405;50.844;-1.062;2022-09-09T02:04:55;8.18;;;1.88;;
65684;SDS011;52405;50.844;-1.062;2022-09-09T02:07:34;8.13;;;2.42;;
65684;SDS011;52405;50.844;-1.062;2022-09-09T02:10:12;6.47;;;1.67;;
65684;SDS011;52405;50.844;-1.062;2022-09-09T02:12:49;8.40;;;1.92;;
65684;SDS011;52405;50.844;-1.062;2022-09-09T02:15:32;3.97;;;1.60;;
65684;SDS011;52405;50.844;-1.062;2022-09-09T02:18:04;7.90;;;1.80;;
65684;SDS011;52405;50.844;-1.062;2022-09-09T02:20:35;7.82;;;2.20;;
65684;SDS011;52405;50.844;-1.062;2022-09-09T02:23:02;10.07;;;2.67;;
65684;SDS011;52405;50.844;-1.062;2022-09-09T02:25:30;7.63;;;3.08;;
65684;SDS011;52405;50.844;-1.062;2022-09-09T02:27:56;7.00;;;2.13;;
65684;SDS011;52405;50.844;-1.062;2022-09-09T02:30:25;8.63;;;2.20;;
65684;SDS011;52405;50.844;-1.062;2022-09-09T02:32:53;6.88;;;2.60;;
65684;SDS011;52405;50.844;-1.062;2022-09-09T02:35:24;7.80;;;2.13;;
65684;SDS011;52405;50.844;-1.062;2022-09-09T02:37:53;5.47;;;2.65;;
65684;SDS011;52405;50.844;-1.062;2022-09-09T02:40:21;8.05;;;2.35;;
65684;SDS011;52405;50.844;-1.062;2022-09-09T02:42:47;5.38;;;2.42;;
65684;SDS011;52405;50.844;-1.062;2022-09-09T02:45:16;8.57;;;2.05;;
65684;SDS011;52405;50.844;-1.062;2022-09-09T02:50:33;5.47;;;1.88;;
65684;SDS011;52405;50.844;-1.062;2022-09-09T02:55:49;4.80;;;1.73;;
65684;SDS011;52405;50.844;-1.062;2022-09-09T02:58:19;5.65;;;2.30;;
65684;SDS011;52405;50.844;-1.062;2022-09-09T03:00:46;5.13;;;1.63;;
65684;SDS011;52405;50.844;-1.062;2022-09-09T03:03:12;5.85;;;2.10;;
65684;SDS011;52405;50.844;-1.062;2022-09-09T03:05:38;3.30;;;2.10;;
65684;SDS011;52405;50.844;-1.062;2022-09-09T03:08:04;4.93;;;2.28;;
65684;SDS011;52405;50.844;-1.062;2022-09-09T03:10:31;8.32;;;2.00;;
65684;SDS011;52405;50.844;-1.062;2022-09-09T03:12:57;9.07;;;2.50;;
65684;SDS011;52405;50.844;-1.062;2022-09-09T03:15:22;5.35;;;2.20;;
65684;SDS011;52405;50.844;-1.062;2022-09-09T03:17:48;6.70;;;2.67;;
65684;SDS011;52405;50.844;-1.062;2022-09-09T03:20:14;5.80;;;2.30;;
65684;SDS011;52405;50.844;-1.062;2022-09-09T03:22:39;7.88;;;2.60;;
65684;SDS011;52405;50.844;-1.062;2022-09-09T03:25:05;3.55;;;2.33;;
65684;SDS011;52405;50.844;-1.062;2022-09-09T03:27:31;7.32;;;2.55;;
65684;SDS011;52405;50.844;-1.062;2022-09-09T03:29:57;6.65;;;2.65;;
65684;SDS011;52405;50.844;-1.062;2022-09-09T03:32:23;6.53;;;2.60;;
65684;SDS011;52405;50.844;-1.062;2022-09-09T03:34:50;7.47;;;3.17;;
65684;SDS011;52405;50.844;-1.062;2022-09-09T03:37:17;8.70;;;3.47;;
65684;SDS011;52405;50.844;-1.062;2022-09-09T03:39:43;7.20;;;2.90;;
65684;SDS011;52405;50.844;-1.062;2022-09-09T03:42:08;11.32;;;4.00;;
65684;SDS011;52405;50.844;-1.062;2022-09-09T03:44:35;7.05;;;3.38;;
65684;SDS011;52405;50.844;-1.062;2022-09-09T03:47:00;4.88;;;3.25;;
65684;SDS011;52405;50.844;-1.062;2022-09-09T03:49:26;9.65;;;3.67;;
65684;SDS011;52405;50.844;-1.062;2022-09-09T03:51:54;6.30;;;4.05;;
65684;SDS011;52405;50.844;-1.062;2022-09-09T03:54:21;7.13;;;3.63;;
65684;SDS011;52405;50.844;-1.062;2022-09-09T03:56:47;9.00;;;4.00;;
65684;SDS011;52405;50.844;-1.062;2022-09-09T03:59:13;9.77;;;3.63;;
65684;SDS011;52405;50.844;-1.062;2022-09-09T04:01:39;5.03;;;3.83;;
65684;SDS011;52405;50.844;-1.062;2022-09-09T04:04:05;5.00;;;4.20;;
65684;SDS011;52405;50.844;-1.062;2022-09-09T04:06:30;6.25;;;3.65;;
65684;SDS011;52405;50.844;-1.062;2022-09-09T04:08:56;9.25;;;3.90;;
65684;SDS011;52405;50.844;-1.062;2022-09-09T04:11:21;4.07;;;3.65;;
65684;SDS011;52405;50.844;-1.062;2022-09-09T04:13:46;6.00;;;4.13;;
65684;SDS011;52405;50.844;-1.062;2022-09-09T04:16:13;9.23;;;4.20;;
65684;SDS011;52405;50.844;-1.062;2022-09-09T04:18:39;6.05;;;3.25;;
65684;SDS011;52405;50.844;-1.062;2022-09-09T04:21:04;7.03;;;5.07;;
65684;SDS011;52405;50.844;-1.062;2022-09-09T04:23:31;4.70;;;3.28;;
65684;SDS011;52405;50.844;-1.062;2022-09-09T04:25:59;6.45;;;3.38;;
65684;SDS011;52405;50.844;-1.062;2022-09-09T04:28:26;10.20;;;3.17;;
65684;SDS011;52405;50.844;-1.062;2022-09-09T04:30:54;6.85;;;3.65;;
65684;SDS011;52405;50.844;-1.062;2022-09-09T04:33:19;7.10;;;3.80;;
65684;SDS011;52405;50.844;-1.062;2022-09-09T04:35:46;6.45;;;3.55;;
65684;SDS011;52405;50.844;-1.062;2022-09-09T04:38:13;5.65;;;3.22;;
65684;SDS011;52405;50.844;-1.062;2022-09-09T04:40:41;6.00;;;3.58;;
65684;SDS011;52405;50.844;-1.062;2022-09-09T04:43:13;6.07;;;2.53;;
65684;SDS011;52405;50.844;-1.062;2022-09-09T04:45:40;8.48;;;3.20;;
65684;SDS011;52405;50.844;-1.062;2022-09-09T04:48:06;9.43;;;3.28;;
65684;SDS011;52405;50.844;-1.062;2022-09-09T04:50:34;7.88;;;3.10;;
65684;SDS011;52405;50.844;-1.062;2022-09-09T04:53:00;5.95;;;3.10;;
65684;SDS011;52405;50.844;-1.062;2022-09-09T04:55:27;3.97;;;2.63;;
65684;SDS011;52405;50.844;-1.062;2022-09-09T04:57:52;6.03;;;2.35;;
65684;SDS011;52405;50.844;-1.062;2022-09-09T05:00:18;11.65;;;2.88;;
65684;SDS011;52405;50.844;-1.062;2022-09-09T05:02:44;5.10;;;2.08;;
65684;SDS011;52405;50.844;-1.062;2022-09-09T05:05:09;8.05;;;2.47;;
65684;SDS011;52405;50.844;-1.062;2022-09-09T05:07:36;6.40;;;3.30;;
65684;SDS011;52405;50.844;-1.062;2022-09-09T05:10:02;6.80;;;1.90;;
65684;SDS011;52405;50.844;-1.062;2022-09-09T05:12:30;7.18;;;2.65;;
65684;SDS011;52405;50.844;-1.062;2022-09-09T05:14:56;7.90;;;2.13;;
65684;SDS011;52405;50.844;-1.062;2022-09-09T05:17:21;6.68;;;2.90;;
65684;SDS011;52405;50.844;-1.062;2022-09-09T05:19:47;9.77;;;3.28;;
65684;SDS011;52405;50.844;-1.062;2022-09-09T05:22:13;5.82;;;2.78;;
65684;SDS011;52405;50.844;-1.062;2022-09-09T05:24:42;5.43;;;2.60;;
65684;SDS011;52405;50.844;-1.062;2022-09-09T05:27:09;7.47;;;2.80;;
65684;SDS011;52405;50.844;-1.062;2022-09-09T05:29:37;4.43;;;2.28;;
65684;SDS011;52405;50.844;-1.062;2022-09-09T05:32:03;7.88;;;2.67;;
65684;SDS011;52405;50.844;-1.062;2022-09-09T05:34:28;7.68;;;2.35;;
65684;SDS011;52405;50.844;-1.062;2022-09-09T05:36:54;8.20;;;2.22;;
65684;SDS011;52405;50.844;-1.062;2022-09-09T05:39:19;6.00;;;2.42;;
65684;SDS011;52405;50.844;-1.062;2022-09-09T05:41:45;4.32;;;2.78;;
65684;SDS011;52405;50.844;-1.062;2022-09-09T05:44:10;3.15;;;1.98;;
65684;SDS011;52405;50.844;-1.062;2022-09-09T05:46:36;8.40;;;2.67;;
65684;SDS011;52405;50.844;-1.062;2022-09-09T05:49:01;7.35;;;2.67;;
65684;SDS011;52405;50.844;-1.062;2022-09-09T05:51:28;6.38;;;2.47;;
65684;SDS011;52405;50.844;-1.062;2022-09-09T05:53:57;5.93;;;2.47;;
65684;SDS011;52405;50.844;-1.062;2022-09-09T05:56:24;5.47;;;2.95;;
65684;SDS011;52405;50.844;-1.062;2022-09-09T05:58:52;6.00;;;2.63;;
65684;SDS011;52405;50.844;-1.062;2022-09-09T06:01:22;3.45;;;2.90;;
65684;SDS011;52405;50.844;-1.062;2022-09-09T06:03:51;7.85;;;2.70;;
65684;SDS011;52405;50.844;-1.062;2022-09-09T06:06:18;4.70;;;3.00;;
65684;SDS011;52405;50.844;-1.062;2022-09-09T06:08:49;5.50;;;3.25;;
65684;SDS011;52405;50.844;-1.062;2022-09-09T06:11:26;4.05;;;2.95;;
65684;SDS011;52405;50.844;-1.062;2022-09-09T06:13:55;4.35;;;2.80;;
65684;SDS011;52405;50.844;-1.062;2022-09-09T06:16:22;3.17;;;2.42;;
65684;SDS011;52405;50.844;-1.062;2022-09-09T06:18:50;5.30;;;3.08;;
65684;SDS011;52405;50.844;-1.062;2022-09-09T06:21:20;5.57;;;2.80;;
65684;SDS011;52405;50.844;-1.062;2022-09-09T06:23:47;8.18;;;2.30;;
65684;SDS011;52405;50.844;-1.062;2022-09-09T06:26:20;6.18;;;2.75;;
65684;SDS011;52405;50.844;-1.062;2022-09-09T06:28:51;8.20;;;3.05;;
65684;SDS011;52405;50.844;-1.062;2022-09-09T06:31:18;7.72;;;2.92;;
65684;SDS011;52405;50.844;-1.062;2022-09-09T06:33:49;6.65;;;3.38;;
65684;SDS011;52405;50.844;-1.062;2022-09-09T06:36:17;4.63;;;2.70;;
65684;SDS011;52405;50.844;-1.062;2022-09-09T06:38:45;7.25;;;3.78;;
65684;SDS011;52405;50.844;-1.062;2022-09-09T06:41:11;6.38;;;2.60;;
65684;SDS011;52405;50.844;-1.062;2022-09-09T06:43:38;4.70;;;2.63;;
65684;SDS011;52405;50.844;-1.062;2022-09-09T06:48:36;7.47;;;3.63;;
65684;SDS011;52405;50.844;-1.062;2022-09-09T06:53:36;8.45;;;2.97;;
65684;SDS011;52405;50.844;-1.062;2022-09-09T06:56:17;10.38;;;3.75;;
65684;SDS011;52405;50.844;-1.062;2022-09-09T06:58:50;6.28;;;3.25;;
65684;SDS011;52405;50.844;-1.062;2022-09-09T07:01:17;8.85;;;4.25;;
65684;SDS011;52405;50.844;-1.062;2022-09-09T07:03:49;10.70;;;4.55;;
65684;SDS011;52405;50.844;-1.062;2022-09-09T07:06:20;10.45;;;3.83;;
65684;SDS011;52405;50.844;-1.062;2022-09-09T07:08:52;9.88;;;4.10;;
65684;SDS011;52405;50.844;-1.062;2022-09-09T07:11:20;7.88;;;3.80;;
65684;SDS011;52405;50.844;-1.062;2022-09-09T07:13:46;9.38;;;3.40;;
65684;SDS011;52405;50.844;-1.062;2022-09-09T07:16:14;8.15;;;3.90;;
65684;SDS011;52405;50.844;-1.062;2022-09-09T07:18:41;5.80;;;3.95;;
65684;SDS011;52405;50.844;-1.062;2022-09-09T07:21:07;11.20;;;3.90;;
65684;SDS011;52405;50.844;-1.062;2022-09-09T07:23:35;7.68;;;3.60;;
65684;SDS011;52405;50.844;-1.062;2022-09-09T07:26:07;4.30;;;3.63;;
65684;SDS011;52405;50.844;-1.062;2022-09-09T07:28:34;11.13;;;3.50;;
65684;SDS011;52405;50.844;-1.062;2022-09-09T07:31:00;5.88;;;3.08;;
65684;SDS011;52405;50.844;-1.062;2022-09-09T07:33:27;9.63;;;3.70;;
65684;SDS011;52405;50.844;-1.062;2022-09-09T07:36:01;5.93;;;2.60;;
65684;SDS011;52405;50.844;-1.062;2022-09-09T07:38:38;4.97;;;2.72;;
65684;SDS011;52405;50.844;-1.062;2022-09-09T07:41:08;9.10;;;2.60;;
65684;SDS011;52405;50.844;-1.062;2022-09-09T07:43:40;8.25;;;2.53;;
65684;SDS011;52405;50.844;-1.062;2022-09-09T07:46:07;8.60;;;2.83;;
65684;SDS011;52405;50.844;-1.062;2022-09-09T07:48:35;5.20;;;2.50;;
65684;SDS011;52405;50.844;-1.062;2022-09-09T07:51:11;6.55;;;2.45;;
65684;SDS011;52405;50.844;-1.062;2022-09-09T07:53:42;4.95;;;2.25;;
65684;SDS011;52405;50.844;-1.062;2022-09-09T07:56:11;5.20;;;1.75;;
65684;SDS011;52405;50.844;-1.062;2022-09-09T07:58:39;4.40;;;1.33;;
65684;SDS011;52405;50.844;-1.062;2022-09-09T08:01:16;4.55;;;1.40;;
65684;SDS011;52405;50.844;-1.062;2022-09-09T08:03:44;4.57;;;1.10;;
65684;SDS011;52405;50.844;-1.062;2022-09-09T08:06:11;6.22;;;1.55;;
65684;SDS011;52405;50.844;-1.062;2022-09-09T08:08:38;5.90;;;1.90;;
65684;SDS011;52405;50.844;-1.062;2022-09-09T08:13:39;4.15;;;1.60;;
65684;SDS011;52405;50.844;-1.062;2022-09-09T08:16:07;4.93;;;1.42;;
65684;SDS011;52405;50.844;-1.062;2022-09-09T08:18:34;3.63;;;1.42;;
65684;SDS011;52405;50.844;-1.062;2022-09-09T08:21:10;4.35;;;1.15;;
65684;SDS011;52405;50.844;-1.062;2022-09-09T08:23:38;4.85;;;1.48;;
65684;SDS011;52405;50.844;-1.062;2022-09-09T08:26:05;2.40;;;1.02;;
65684;SDS011;52405;50.844;-1.062;2022-09-09T08:28:34;1.95;;;1.00;;
65684;SDS011;52405;50.844;-1.062;2022-09-09T08:31:16;4.35;;;1.02;;
65684;SDS011;52405;50.844;-1.062;2022-09-09T08:33:43;3.45;;;1.00;;
65684;SDS011;52405;50.844;-1.062;2022-09-09T08:36:13;3.50;;;1.60;;
65684;SDS011;52405;50.844;-1.062;2022-09-09T08:38:41;3.35;;;0.60;;
65684;SDS011;52405;50.844;-1.062;2022-09-09T08:44:10;2.75;;;1.02;;
65684;SDS011;52405;50.844;-1.062;2022-09-09T08:55:03;3.92;;;1.05;;
65684;SDS011;52405;50.844;-1.062;2022-09-09T08:57:47;3.10;;;0.88;;
65684;SDS011;52405;50.844;-1.062;2022-09-09T09:00:16;3.08;;;0.95;;
65684;SDS011;52405;50.844;-1.062;2022-09-09T09:03:25;4.40;;;1.02;;
65684;SDS011;52405;50.844;-1.062;2022-09-09T09:05:44;2.15;;;0.98;;
65684;SDS011;52405;50.844;-1.062;2022-09-09T09:11:03;3.42;;;0.93;;
65684;SDS011;52405;50.844;-1.062;2022-09-09T09:19:19;3.45;;;0.80;;
65684;SDS011;52405;50.844;-1.062;2022-09-09T09:27:15;2.92;;;0.75;;
65684;SDS011;52405;50.844;-1.062;2022-09-09T09:29:46;4.03;;;0.88;;
65684;SDS011;52405;50.844;-1.062;2022-09-09T09:32:17;2.53;;;1.08;;
65684;SDS011;52405;50.844;-1.062;2022-09-09T09:34:50;2.70;;;0.90;;
65684;SDS011;52405;50.844;-1.062;2022-09-09T09:37:32;2.60;;;0.70;;
65684;SDS011;52405;50.844;-1.062;2022-09-09T09:40:09;3.15;;;0.68;;
65684;SDS011;52405;50.844;-1.062;2022-09-09T09:45:45;2.03;;;0.55;;
65684;SDS011;52405;50.844;-1.062;2022-09-09T09:48:11;2.10;;;0.65;;
65684;SDS011;52405;50.844;-1.062;2022-09-09T09:56:02;4.05;;;1.17;;
65684;SDS011;52405;50.844;-1.062;2022-09-09T09:58:49;4.10;;;1.00;;
65684;SDS011;52405;50.844;-1.062;2022-09-09T10:03:54;5.33;;;1.10;;
65684;SDS011;52405;50.844;-1.062;2022-09-09T10:06:33;5.55;;;1.65;;
65684;SDS011;52405;50.844;-1.062;2022-09-09T10:09:01;3.70;;;1.30;;
65684;SDS011;52405;50.844;-1.062;2022-09-09T10:11:44;3.30;;;0.98;;
65684;SDS011;52405;50.844;-1.062;2022-09-09T10:17:05;4.05;;;1.10;;
65684;SDS011;52405;50.844;-1.062;2022-09-09T10:19:55;2.50;;;0.68;;
65684;SDS011;52405;50.844;-1.062;2022-09-09T10:22:37;1.70;;;0.85;;
65684;SDS011;52405;50.844;-1.062;2022-09-09T10:25:19;2.75;;;1.05;;
65684;SDS011;52405;50.844;-1.062;2022-09-09T10:33:50;1.40;;;0.85;;
65684;SDS011;52405;50.844;-1.062;2022-09-09T10:36:24;2.63;;;1.00;;
65684;SDS011;52405;50.844;-1.062;2022-09-09T10:38:58;2.20;;;0.73;;
65684;SDS011;52405;50.844;-1.062;2022-09-09T10:41:39;2.53;;;1.10;;
65684;SDS011;52405;50.844;-1.062;2022-09-09T10:57:06;1.13;;;0.60;;
65684;SDS011;52405;50.844;-1.062;2022-09-09T10:59:40;4.75;;;1.15;;
65684;SDS011;52405;50.844;-1.062;2022-09-09T11:02:13;2.47;;;0.80;;
65684;SDS011;52405;50.844;-1.062;2022-09-09T11:08:03;0.88;;;0.70;;
65684;SDS011;52405;50.844;-1.062;2022-09-09T11:10:38;2.35;;;0.77;;
65684;SDS011;52405;50.844;-1.062;2022-09-09T11:13:07;3.47;;;0.98;;
65684;SDS011;52405;50.844;-1.062;2022-09-09T11:15:45;2.15;;;0.93;;
65684;SDS011;52405;50.844;-1.062;2022-09-09T11:18:19;1.88;;;0.80;;
65684;SDS011;52405;50.844;-1.062;2022-09-09T11:20:48;2.92;;;0.80;;
65684;SDS011;52405;50.844;-1.062;2022-09-09T11:23:17;1.90;;;0.77;;
65684;SDS011;52405;50.844;-1.062;2022-09-09T11:25:57;1.60;;;0.60;;
65684;SDS011;52405;50.844;-1.062;2022-09-09T11:39:02;2.33;;;0.60;;
65684;SDS011;52405;50.844;-1.062;2022-09-09T11:41:46;1.75;;;0.70;;
65684;SDS011;52405;50.844;-1.062;2022-09-09T11:44:12;2.33;;;1.15;;
65684;SDS011;52405;50.844;-1.062;2022-09-09T11:46:46;2.83;;;1.40;;
65684;SDS011;52405;50.844;-1.062;2022-09-09T11:49:29;1.33;;;0.77;;
65684;SDS011;52405;50.844;-1.062;2022-09-09T11:52:18;3.83;;;0.90;;
65684;SDS011;52405;50.844;-1.062;2022-09-09T11:54:46;6.25;;;1.70;;
65684;SDS011;52405;50.844;-1.062;2022-09-09T11:57:22;1.77;;;0.77;;
65684;SDS011;52405;50.844;-1.062;2022-09-09T11:59:51;2.88;;;0.90;;
65684;SDS011;52405;50.844;-1.062;2022-09-09T12:02:27;2.10;;;0.95;;
65684;SDS011;52405;50.844;-1.062;2022-09-09T12:05:05;2.35;;;0.77;;
65684;SDS011;52405;50.844;-1.062;2022-09-09T12:07:52;1.17;;;0.68;;
65684;SDS011;52405;50.844;-1.062;2022-09-09T12:10:29;1.85;;;0.80;;
65684;SDS011;52405;50.844;-1.062;2022-09-09T12:13:23;2.70;;;0.90;;
65684;SDS011;52405;50.844;-1.062;2022-09-09T12:15:51;1.52;;;0.63;;
65684;SDS011;52405;50.844;-1.062;2022-09-09T12:18:51;5.65;;;0.77;;
65684;SDS011;52405;50.844;-1.062;2022-09-09T12:21:27;2.65;;;0.90;;
65684;SDS011;52405;50.844;-1.062;2022-09-09T12:24:10;1.30;;;0.77;;
65684;SDS011;52405;50.844;-1.062;2022-09-09T12:32:13;8.38;;;1.38;;
65684;SDS011;52405;50.844;-1.062;2022-09-09T12:40:04;2.85;;;1.70;;
65684;SDS011;52405;50.844;-1.062;2022-09-09T12:42:31;4.93;;;1.10;;
65684;SDS011;52405;50.844;-1.062;2022-09-09T12:45:01;1.58;;;0.90;;
65684;SDS011;52405;50.844;-1.062;2022-09-09T12:47:34;2.85;;;1.27;;
65684;SDS011;52405;50.844;-1.062;2022-09-09T12:50:01;2.20;;;0.65;;
65684;SDS011;52405;50.844;-1.062;2022-09-09T12:55:03;0.98;;;0.70;;
65684;SDS011;52405;50.844;-1.062;2022-09-09T12:57:35;3.83;;;0.93;;
65684;SDS011;52405;50.844;-1.062;2022-09-09T13:00:10;3.60;;;0.70;;
65684;SDS011;52405;50.844;-1.062;2022-09-09T13:02:47;1.67;;;0.90;;
65684;SDS011;52405;50.844;-1.062;2022-09-09T13:05:16;2.78;;;0.80;;
65684;SDS011;52405;50.844;-1.062;2022-09-09T13:07:50;3.03;;;1.10;;
65684;SDS011;52405;50.844;-1.062;2022-09-09T13:10:26;3.67;;;0.90;;
65684;SDS011;52405;50.844;-1.062;2022-09-09T13:12:54;25.40;;;3.15;;
65684;SDS011;52405;50.844;-1.062;2022-09-09T13:15:21;2.58;;;1.10;;
65684;SDS011;52405;50.844;-1.062;2022-09-09T13:17:53;2.40;;;0.70;;
65684;SDS011;52405;50.844;-1.062;2022-09-09T13:20:25;0.57;;;0.32;;
65684;SDS011;52405;50.844;-1.062;2022-09-09T13:22:51;2.00;;;1.02;;
65684;SDS011;52405;50.844;-1.062;2022-09-09T13:25:23;2.78;;;0.70;;
65684;SDS011;52405;50.844;-1.062;2022-09-09T13:28:03;0.60;;;0.37;;
65684;SDS011;52405;50.844;-1.062;2022-09-09T13:33:05;4.25;;;1.02;;
65684;SDS011;52405;50.844;-1.062;2022-09-09T13:35:32;3.58;;;0.57;;
65684;SDS011;52405;50.844;-1.062;2022-09-09T13:37:58;1.73;;;0.57;;
65684;SDS011;52405;50.844;-1.062;2022-09-09T13:40:31;2.92;;;0.63;;
65684;SDS011;52405;50.844;-1.062;2022-09-09T13:42:57;5.72;;;0.95;;
65684;SDS011;52405;50.844;-1.062;2022-09-09T13:45:24;1.73;;;0.70;;
65684;SDS011;52405;50.844;-1.062;2022-09-09T13:47:52;7.22;;;0.68;;
65684;SDS011;52405;50.844;-1.062;2022-09-09T13:50:29;1.30;;;0.60;;
65684;SDS011;52405;50.844;-1.062;2022-09-09T13:55:26;3.60;;;2.22;;
65684;SDS011;52405;50.844;-1.062;2022-09-09T13:58:03;1.30;;;0.80;;
65684;SDS011;52405;50.844;-1.062;2022-09-09T14:00:30;2.72;;;1.38;;
65684;SDS011;52405;50.844;-1.062;2022-09-09T14:02:58;2.30;;;1.23;;
65684;SDS011;52405;50.844;-1.062;2022-09-09T14:05:26;2.63;;;0.70;;
65684;SDS011;52405;50.844;-1.062;2022-09-09T14:07:52;3.22;;;0.85;;
65684;SDS011;52405;50.844;-1.062;2022-09-09T14:10:17;1.58;;;0.60;;
65684;SDS011;52405;50.844;-1.062;2022-09-09T14:12:43;2.50;;;1.27;;
65684;SDS011;52405;50.844;-1.062;2022-09-09T14:15:09;2.00;;;1.30;;
65684;SDS011;52405;50.844;-1.062;2022-09-09T14:17:36;1.83;;;0.90;;
65684;SDS011;52405;50.844;-1.062;2022-09-09T14:20:06;0.93;;;0.70;;
65684;SDS011;52405;50.844;-1.062;2022-09-09T14:22:33;3.10;;;0.63;;
65684;SDS011;52405;50.844;-1.062;2022-09-09T14:25:00;1.60;;;0.60;;
65684;SDS011;52405;50.844;-1.062;2022-09-09T14:27:26;5.13;;;1.27;;
65684;SDS011;52405;50.844;-1.062;2022-09-09T14:29:52;2.92;;;0.70;;
65684;SDS011;52405;50.844;-1.062;2022-09-09T14:32:21;3.30;;;2.03;;
65684;SDS011;52405;50.844;-1.062;2022-09-09T14:34:47;2.47;;;0.88;;
65684;SDS011;52405;50.844;-1.062;2022-09-09T14:37:16;2.30;;;0.70;;
65684;SDS011;52405;50.844;-1.062;2022-09-09T14:39:42;3.58;;;0.60;;
65684;SDS011;52405;50.844;-1.062;2022-09-09T14:42:12;2.22;;;0.68;;
65684;SDS011;52405;50.844;-1.062;2022-09-09T14:44:38;2.88;;;1.30;;
65684;SDS011;52405;50.844;-1.062;2022-09-09T14:47:05;2.15;;;0.82;;
65684;SDS011;52405;50.844;-1.062;2022-09-09T14:49:33;3.08;;;0.90;;
65684;SDS011;52405;50.844;-1.062;2022-09-09T14:52:02;1.83;;;0.82;;
65684;SDS011;52405;50.844;-1.062;2022-09-09T14:54:29;2.47;;;0.98;;
65684;SDS011;52405;50.844;-1.062;2022-09-09T14:56:55;3.83;;;1.27;;
65684;SDS011;52405;50.844;-1.062;2022-09-09T14:59:22;1.90;;;0.88;;
65684;SDS011;52405;50.844;-1.062;2022-09-09T15:01:47;4.45;;;1.42;;
65684;SDS011;52405;50.844;-1.062;2022-09-09T15:04:13;3.05;;;1.08;;
65684;SDS011;52405;50.844;-1.062;2022-09-09T15:06:42;2.33;;;0.85;;
65684;SDS011;52405;50.844;-1.062;2022-09-09T15:09:09;1.80;;;0.70;;
65684;SDS011;52405;50.844;-1.062;2022-09-09T15:11:36;3.90;;;0.80;;
65684;SDS011;52405;50.844;-1.062;2022-09-09T15:14:03;2.42;;;0.80;;
65684;SDS011;52405;50.844;-1.062;2022-09-09T15:16:29;2.15;;;0.70;;
65684;SDS011;52405;50.844;-1.062;2022-09-09T15:18:57;6.45;;;1.38;;
65684;SDS011;52405;50.844;-1.062;2022-09-09T15:21:24;2.78;;;1.20;;
65684;SDS011;52405;50.844;-1.062;2022-09-09T15:23:54;2.05;;;1.05;;
65684;SDS011;52405;50.844;-1.062;2022-09-09T15:26:20;2.50;;;0.88;;
65684;SDS011;52405;50.844;-1.062;2022-09-09T15:28:47;5.30;;;0.93;;
65684;SDS011;52405;50.844;-1.062;2022-09-09T15:31:19;4.40;;;1.10;;
65684;SDS011;52405;50.844;-1.062;2022-09-09T15:33:56;3.90;;;1.10;;
65684;SDS011;52405;50.844;-1.062;2022-09-09T15:36:26;3.00;;;0.85;;
65684;SDS011;52405;50.844;-1.062;2022-09-09T15:38:53;2.13;;;1.00;;
65684;SDS011;52405;50.844;-1.062;2022-09-09T15:41:20;3.30;;;0.93;;
65684;SDS011;52405;50.844;-1.062;2022-09-09T15:43:47;3.33;;;1.35;;
65684;SDS011;52405;50.844;-1.062;2022-09-09T15:48:43;6.05;;;1.63;;
65684;SDS011;52405;50.844;-1.062;2022-09-09T15:51:10;4.05;;;1.25;;
65684;SDS011;52405;50.844;-1.062;2022-09-09T15:53:36;5.13;;;1.40;;
65684;SDS011;52405;50.844;-1.062;2022-09-09T15:56:04;3.80;;;1.35;;
65684;SDS011;52405;50.844;-1.062;2022-09-09T15:58:31;1.65;;;0.85;;
65684;SDS011;52405;50.844;-1.062;2022-09-09T16:01:04;3.88;;;1.55;;
65684;SDS011;52405;50.844;-1.062;2022-09-09T16:03:39;2.63;;;0.95;;
65684;SDS011;52405;50.844;-1.062;2022-09-09T16:06:11;2.95;;;1.02;;
65684;SDS011;52405;50.844;-1.062;2022-09-09T16:08:42;6.00;;;1.50;;
65684;SDS011;52405;50.844;-1.062;2022-09-09T16:11:14;2.75;;;0.85;;
65684;SDS011;52405;50.844;-1.062;2022-09-09T16:13:42;4.80;;;1.45;;
65684;SDS011;52405;50.844;-1.062;2022-09-09T16:16:12;5.55;;;1.77;;
65684;SDS011;52405;50.844;-1.062;2022-09-09T16:18:39;4.35;;;1.27;;
65684;SDS011;52405;50.844;-1.062;2022-09-09T16:21:07;4.10;;;1.00;;
65684;SDS011;52405;50.844;-1.062;2022-09-09T16:23:37;3.95;;;1.52;;
65684;SDS011;52405;50.844;-1.062;2022-09-09T16:26:04;3.42;;;1.20;;
65684;SDS011;52405;50.844;-1.062;2022-09-09T16:28:30;7.15;;;1.60;;
65684;SDS011;52405;50.844;-1.062;2022-09-09T16:30:57;2.72;;;1.45;;
65684;SDS011;52405;50.844;-1.062;2022-09-09T16:33:26;5.30;;;1.20;;
65684;SDS011;52405;50.844;-1.062;2022-09-09T16:35:51;7.15;;;1.40;;
65684;SDS011;52405;50.844;-1.062;2022-09-09T16:38:17;2.60;;;1.10;;
65684;SDS011;52405;50.844;-1.062;2022-09-09T16:40:42;7.85;;;1.65;;
65684;SDS011;52405;50.844;-1.062;2022-09-09T16:43:08;5.25;;;1.35;;
65684;SDS011;52405;50.844;-1.062;2022-09-09T16:45:43;2.42;;;1.25;;
65684;SDS011;52405;50.844;-1.062;2022-09-09T16:48:10;2.72;;;1.40;;
65684;SDS011;52405;50.844;-1.062;2022-09-09T16:50:36;4.47;;;1.10;;
65684;SDS011;52405;50.844;-1.062;2022-09-09T16:53:02;2.63;;;1.10;;
65684;SDS011;52405;50.844;-1.062;2022-09-09T16:55:37;3.60;;;1.20;;
65684;SDS011;52405;50.844;-1.062;2022-09-09T16:58:04;4.28;;;1.63;;
65684;SDS011;52405;50.844;-1.062;2022-09-09T17:00:30;3.47;;;1.10;;
65684;SDS011;52405;50.844;-1.062;2022-09-09T17:02:55;4.82;;;1.42;;
65684;SDS011;52405;50.844;-1.062;2022-09-09T17:05:21;1.75;;;1.10;;
65684;SDS011;52405;50.844;-1.062;2022-09-09T17:07:48;4.22;;;1.25;;